sensor_id;sensor_type;location;lat;lon;timestamp;P1;durP1;ratioP1;P2;durP2;ratioP2
9698;SDS011;10089;47.876;8.346;2023-07-31T00:00:44;2.63;;;1.50;;
9698;SDS011;10089;47.876;8.346;2023-07-31T00:03:11;4.78;;;1.80;;
9698;SDS011;10089;47.876;8.346;2023-07-31T00:05:36;3.97;;;1.67;;
9698;SDS011;10089;47.876;8.346;2023-07-31T00:08:02;2.28;;;1.50;;
9698;SDS011;10089;47.876;8.346;2023-07-31T00:10:28;2.80;;;1.85;;
9698;SDS011;10089;47.876;8.346;2023-07-31T00:12:53;2.00;;;1.80;;
9698;SDS011;10089;47.876;8.346;2023-07-31T00:15:19;4.75;;;1.90;;
9698;SDS011;10089;47.876;8.346;2023-07-31T00:17:45;4.25;;;1.55;;
9698;SDS011;10089;47.876;8.346;2023-07-31T00:20:10;2.45;;;1.52;;
9698;SDS011;10089;47.876;8.346;2023-07-31T00:22:36;3.85;;;1.40;;
9698;SDS011;10089;47.876;8.346;2023-07-31T00:25:01;5.15;;;1.52;;
9698;SDS011;10089;47.876;8.346;2023-07-31T00:27:27;3.65;;;1.80;;
9698;SDS011;10089;47.876;8.346;2023-07-31T00:29:53;3.13;;;1.67;;
9698;SDS011;10089;47.876;8.346;2023-07-31T00:32:18;7.07;;;2.38;;
9698;SDS011;10089;47.876;8.346;2023-07-31T00:34:44;3.40;;;1.75;;
9698;SDS011;10089;47.876;8.346;2023-07-31T00:37:09;4.30;;;1.95;;
9698;SDS011;10089;47.876;8.346;2023-07-31T00:39:35;3.20;;;1.77;;
9698;SDS011;10089;47.876;8.346;2023-07-31T00:42:01;5.22;;;1.70;;
9698;SDS011;10089;47.876;8.346;2023-07-31T00:44:27;2.00;;;1.60;;
9698;SDS011;10089;47.876;8.346;2023-07-31T00:46:52;2.55;;;1.75;;
9698;SDS011;10089;47.876;8.346;2023-07-31T00:49:18;2.15;;;1.75;;
9698;SDS011;10089;47.876;8.346;2023-07-31T00:51:46;4.80;;;1.83;;
9698;SDS011;10089;47.876;8.346;2023-07-31T00:54:11;5.78;;;1.83;;
9698;SDS011;10089;47.876;8.346;2023-07-31T00:56:37;3.30;;;1.58;;
9698;SDS011;10089;47.876;8.346;2023-07-31T00:59:03;4.53;;;1.60;;
9698;SDS011;10089;47.876;8.346;2023-07-31T01:01:29;6.13;;;2.42;;
9698;SDS011;10089;47.876;8.346;2023-07-31T01:03:54;2.88;;;1.50;;
9698;SDS011;10089;47.876;8.346;2023-07-31T01:09:07;3.90;;;1.50;;
9698;SDS011;10089;47.876;8.346;2023-07-31T01:11:52;2.42;;;1.60;;
9698;SDS011;10089;47.876;8.346;2023-07-31T01:14:20;2.35;;;1.48;;
9698;SDS011;10089;47.876;8.346;2023-07-31T01:16:46;2.05;;;1.48;;
9698;SDS011;10089;47.876;8.346;2023-07-31T01:19:11;4.13;;;1.63;;
9698;SDS011;10089;47.876;8.346;2023-07-31T01:24:55;5.30;;;1.50;;
9698;SDS011;10089;47.876;8.346;2023-07-31T01:27:43;1.63;;;1.48;;
9698;SDS011;10089;47.876;8.346;2023-07-31T01:30:16;2.13;;;1.65;;
9698;SDS011;10089;47.876;8.346;2023-07-31T01:32:47;2.08;;;1.80;;
9698;SDS011;10089;47.876;8.346;2023-07-31T01:35:13;4.10;;;1.60;;
9698;SDS011;10089;47.876;8.346;2023-07-31T01:37:40;2.85;;;1.85;;
9698;SDS011;10089;47.876;8.346;2023-07-31T01:40:05;2.30;;;1.50;;
9698;SDS011;10089;47.876;8.346;2023-07-31T01:42:31;3.13;;;1.77;;
9698;SDS011;10089;47.876;8.346;2023-07-31T01:44:57;3.00;;;1.65;;
9698;SDS011;10089;47.876;8.346;2023-07-31T01:47:23;3.03;;;2.00;;
9698;SDS011;10089;47.876;8.346;2023-07-31T01:49:48;2.28;;;1.60;;
9698;SDS011;10089;47.876;8.346;2023-07-31T01:52:14;6.97;;;1.92;;
9698;SDS011;10089;47.876;8.346;2023-07-31T01:54:40;3.78;;;1.92;;
9698;SDS011;10089;47.876;8.346;2023-07-31T01:57:05;2.45;;;1.60;;
9698;SDS011;10089;47.876;8.346;2023-07-31T01:59:31;3.40;;;1.70;;
9698;SDS011;10089;47.876;8.346;2023-07-31T02:01:57;3.55;;;1.67;;
9698;SDS011;10089;47.876;8.346;2023-07-31T02:04:22;2.05;;;1.50;;
9698;SDS011;10089;47.876;8.346;2023-07-31T02:06:48;3.15;;;1.75;;
9698;SDS011;10089;47.876;8.346;2023-07-31T02:09:14;4.72;;;1.73;;
9698;SDS011;10089;47.876;8.346;2023-07-31T02:11:39;2.13;;;1.60;;
9698;SDS011;10089;47.876;8.346;2023-07-31T02:14:05;4.13;;;1.88;;
9698;SDS011;10089;47.876;8.346;2023-07-31T02:16:30;4.88;;;1.60;;
9698;SDS011;10089;47.876;8.346;2023-07-31T02:18:56;4.32;;;1.90;;
9698;SDS011;10089;47.876;8.346;2023-07-31T02:21:22;3.45;;;1.50;;
9698;SDS011;10089;47.876;8.346;2023-07-31T02:23:47;4.03;;;1.50;;
9698;SDS011;10089;47.876;8.346;2023-07-31T02:26:13;2.30;;;1.60;;
9698;SDS011;10089;47.876;8.346;2023-07-31T02:28:38;3.22;;;1.58;;
9698;SDS011;10089;47.876;8.346;2023-07-31T02:31:04;2.75;;;1.67;;
9698;SDS011;10089;47.876;8.346;2023-07-31T02:33:29;3.05;;;2.05;;
9698;SDS011;10089;47.876;8.346;2023-07-31T02:35:55;3.03;;;1.65;;
9698;SDS011;10089;47.876;8.346;2023-07-31T02:38:21;2.55;;;1.77;;
9698;SDS011;10089;47.876;8.346;2023-07-31T02:40:46;4.63;;;1.77;;
9698;SDS011;10089;47.876;8.346;2023-07-31T02:43:13;2.72;;;1.70;;
9698;SDS011;10089;47.876;8.346;2023-07-31T02:45:38;6.78;;;1.77;;
9698;SDS011;10089;47.876;8.346;2023-07-31T02:48:04;4.35;;;2.15;;
9698;SDS011;10089;47.876;8.346;2023-07-31T02:50:30;3.63;;;1.70;;
9698;SDS011;10089;47.876;8.346;2023-07-31T02:52:57;3.08;;;1.65;;
9698;SDS011;10089;47.876;8.346;2023-07-31T02:55:22;3.38;;;2.03;;
9698;SDS011;10089;47.876;8.346;2023-07-31T02:57:48;3.15;;;1.90;;
9698;SDS011;10089;47.876;8.346;2023-07-31T03:00:13;1.60;;;1.50;;
9698;SDS011;10089;47.876;8.346;2023-07-31T03:02:39;5.03;;;1.90;;
9698;SDS011;10089;47.876;8.346;2023-07-31T03:05:05;3.05;;;1.83;;
9698;SDS011;10089;47.876;8.346;2023-07-31T03:07:30;2.08;;;1.50;;
9698;SDS011;10089;47.876;8.346;2023-07-31T03:09:56;3.28;;;1.48;;
9698;SDS011;10089;47.876;8.346;2023-07-31T03:12:22;5.97;;;2.03;;
9698;SDS011;10089;47.876;8.346;2023-07-31T03:14:48;3.35;;;1.75;;
9698;SDS011;10089;47.876;8.346;2023-07-31T03:17:14;3.05;;;1.90;;
9698;SDS011;10089;47.876;8.346;2023-07-31T03:19:41;5.13;;;1.60;;
9698;SDS011;10089;47.876;8.346;2023-07-31T03:22:07;3.78;;;1.55;;
9698;SDS011;10089;47.876;8.346;2023-07-31T03:24:32;1.50;;;1.40;;
9698;SDS011;10089;47.876;8.346;2023-07-31T03:26:58;6.00;;;1.90;;
9698;SDS011;10089;47.876;8.346;2023-07-31T03:29:23;3.22;;;1.65;;
9698;SDS011;10089;47.876;8.346;2023-07-31T03:31:49;3.80;;;2.08;;
9698;SDS011;10089;47.876;8.346;2023-07-31T03:34:14;2.70;;;1.80;;
9698;SDS011;10089;47.876;8.346;2023-07-31T03:36:40;5.97;;;1.70;;
9698;SDS011;10089;47.876;8.346;2023-07-31T03:39:06;1.67;;;1.50;;
9698;SDS011;10089;47.876;8.346;2023-07-31T03:41:31;2.47;;;1.83;;
9698;SDS011;10089;47.876;8.346;2023-07-31T03:43:57;5.45;;;2.22;;
9698;SDS011;10089;47.876;8.346;2023-07-31T03:46:23;3.50;;;1.67;;
9698;SDS011;10089;47.876;8.346;2023-07-31T03:48:49;3.97;;;2.13;;
9698;SDS011;10089;47.876;8.346;2023-07-31T03:51:15;2.47;;;1.80;;
9698;SDS011;10089;47.876;8.346;2023-07-31T03:53:41;5.15;;;1.95;;
9698;SDS011;10089;47.876;8.346;2023-07-31T03:56:07;6.07;;;1.92;;
9698;SDS011;10089;47.876;8.346;2023-07-31T03:58:32;4.72;;;1.60;;
9698;SDS011;10089;47.876;8.346;2023-07-31T04:00:58;4.22;;;1.90;;
9698;SDS011;10089;47.876;8.346;2023-07-31T04:03:24;4.82;;;1.80;;
9698;SDS011;10089;47.876;8.346;2023-07-31T04:05:49;2.95;;;1.77;;
9698;SDS011;10089;47.876;8.346;2023-07-31T04:08:15;5.20;;;1.88;;
9698;SDS011;10089;47.876;8.346;2023-07-31T04:10:40;5.18;;;1.90;;
9698;SDS011;10089;47.876;8.346;2023-07-31T04:13:06;3.60;;;2.10;;
9698;SDS011;10089;47.876;8.346;2023-07-31T04:15:31;5.15;;;2.00;;
9698;SDS011;10089;47.876;8.346;2023-07-31T04:17:57;2.55;;;1.90;;
9698;SDS011;10089;47.876;8.346;2023-07-31T04:20:23;4.97;;;1.75;;
9698;SDS011;10089;47.876;8.346;2023-07-31T04:22:49;2.85;;;1.60;;
9698;SDS011;10089;47.876;8.346;2023-07-31T04:25:14;5.47;;;2.17;;
9698;SDS011;10089;47.876;8.346;2023-07-31T04:27:40;3.13;;;1.75;;
9698;SDS011;10089;47.876;8.346;2023-07-31T04:30:06;4.05;;;1.77;;
9698;SDS011;10089;47.876;8.346;2023-07-31T04:32:32;4.03;;;1.85;;
9698;SDS011;10089;47.876;8.346;2023-07-31T04:34:57;4.38;;;1.83;;
9698;SDS011;10089;47.876;8.346;2023-07-31T04:37:23;3.00;;;1.70;;
9698;SDS011;10089;47.876;8.346;2023-07-31T04:39:49;4.05;;;1.52;;
9698;SDS011;10089;47.876;8.346;2023-07-31T04:42:14;2.53;;;1.73;;
9698;SDS011;10089;47.876;8.346;2023-07-31T04:44:40;4.00;;;2.00;;
9698;SDS011;10089;47.876;8.346;2023-07-31T04:47:05;5.22;;;2.10;;
9698;SDS011;10089;47.876;8.346;2023-07-31T04:49:31;7.05;;;2.28;;
9698;SDS011;10089;47.876;8.346;2023-07-31T04:51:58;3.80;;;1.80;;
9698;SDS011;10089;47.876;8.346;2023-07-31T04:54:23;4.28;;;1.90;;
9698;SDS011;10089;47.876;8.346;2023-07-31T04:56:49;4.40;;;1.83;;
9698;SDS011;10089;47.876;8.346;2023-07-31T04:59:14;4.88;;;1.92;;
9698;SDS011;10089;47.876;8.346;2023-07-31T05:01:40;3.20;;;2.10;;
9698;SDS011;10089;47.876;8.346;2023-07-31T05:04:06;4.53;;;1.65;;
9698;SDS011;10089;47.876;8.346;2023-07-31T05:06:32;6.07;;;2.10;;
9698;SDS011;10089;47.876;8.346;2023-07-31T05:08:57;3.85;;;2.03;;
9698;SDS011;10089;47.876;8.346;2023-07-31T05:11:23;3.92;;;2.08;;
9698;SDS011;10089;47.876;8.346;2023-07-31T05:13:49;4.15;;;2.33;;
9698;SDS011;10089;47.876;8.346;2023-07-31T05:16:14;3.35;;;1.70;;
9698;SDS011;10089;47.876;8.346;2023-07-31T05:18:40;4.10;;;1.80;;
9698;SDS011;10089;47.876;8.346;2023-07-31T05:21:06;4.28;;;1.80;;
9698;SDS011;10089;47.876;8.346;2023-07-31T05:23:32;3.83;;;2.05;;
9698;SDS011;10089;47.876;8.346;2023-07-31T05:26:04;5.50;;;2.03;;
9698;SDS011;10089;47.876;8.346;2023-07-31T05:28:30;4.05;;;1.75;;
9698;SDS011;10089;47.876;8.346;2023-07-31T05:31:02;5.03;;;2.35;;
9698;SDS011;10089;47.876;8.346;2023-07-31T05:33:29;4.72;;;2.20;;
9698;SDS011;10089;47.876;8.346;2023-07-31T05:35:54;4.47;;;1.98;;
9698;SDS011;10089;47.876;8.346;2023-07-31T05:38:20;3.70;;;1.70;;
9698;SDS011;10089;47.876;8.346;2023-07-31T05:40:46;6.10;;;2.00;;
9698;SDS011;10089;47.876;8.346;2023-07-31T05:43:12;3.90;;;2.20;;
9698;SDS011;10089;47.876;8.346;2023-07-31T05:45:38;4.30;;;2.40;;
9698;SDS011;10089;47.876;8.346;2023-07-31T05:48:05;4.22;;;2.13;;
9698;SDS011;10089;47.876;8.346;2023-07-31T05:50:31;3.03;;;1.85;;
9698;SDS011;10089;47.876;8.346;2023-07-31T05:52:57;3.85;;;1.98;;
9698;SDS011;10089;47.876;8.346;2023-07-31T05:55:22;6.20;;;2.03;;
9698;SDS011;10089;47.876;8.346;2023-07-31T05:57:51;6.07;;;2.10;;
9698;SDS011;10089;47.876;8.346;2023-07-31T06:00:17;3.83;;;1.92;;
9698;SDS011;10089;47.876;8.346;2023-07-31T06:02:43;3.88;;;1.88;;
9698;SDS011;10089;47.876;8.346;2023-07-31T06:05:09;4.22;;;1.95;;
9698;SDS011;10089;47.876;8.346;2023-07-31T06:07:35;2.88;;;1.98;;
9698;SDS011;10089;47.876;8.346;2023-07-31T06:10:01;3.47;;;1.73;;
9698;SDS011;10089;47.876;8.346;2023-07-31T06:12:33;5.00;;;1.95;;
9698;SDS011;10089;47.876;8.346;2023-07-31T06:15:00;2.60;;;1.58;;
9698;SDS011;10089;47.876;8.346;2023-07-31T06:17:26;5.47;;;1.85;;
9698;SDS011;10089;47.876;8.346;2023-07-31T06:19:51;3.42;;;1.70;;
9698;SDS011;10089;47.876;8.346;2023-07-31T06:22:17;5.03;;;1.92;;
9698;SDS011;10089;47.876;8.346;2023-07-31T06:24:43;5.40;;;2.22;;
9698;SDS011;10089;47.876;8.346;2023-07-31T06:27:09;4.50;;;1.95;;
9698;SDS011;10089;47.876;8.346;2023-07-31T06:29:35;6.38;;;2.22;;
9698;SDS011;10089;47.876;8.346;2023-07-31T06:32:01;3.92;;;2.15;;
9698;SDS011;10089;47.876;8.346;2023-07-31T06:34:26;4.05;;;1.95;;
9698;SDS011;10089;47.876;8.346;2023-07-31T06:36:52;8.88;;;2.20;;
9698;SDS011;10089;47.876;8.346;2023-07-31T06:39:17;5.22;;;1.60;;
9698;SDS011;10089;47.876;8.346;2023-07-31T06:41:43;5.20;;;1.90;;
9698;SDS011;10089;47.876;8.346;2023-07-31T06:44:09;5.20;;;1.70;;
9698;SDS011;10089;47.876;8.346;2023-07-31T06:46:35;1.65;;;1.42;;
9698;SDS011;10089;47.876;8.346;2023-07-31T06:49:01;4.47;;;1.88;;
9698;SDS011;10089;47.876;8.346;2023-07-31T06:51:27;3.40;;;1.88;;
9698;SDS011;10089;47.876;8.346;2023-07-31T06:53:52;3.72;;;1.95;;
9698;SDS011;10089;47.876;8.346;2023-07-31T06:56:18;6.05;;;1.75;;
9698;SDS011;10089;47.876;8.346;2023-07-31T06:58:43;4.20;;;2.03;;
9698;SDS011;10089;47.876;8.346;2023-07-31T07:01:09;4.82;;;1.80;;
9698;SDS011;10089;47.876;8.346;2023-07-31T07:03:35;7.15;;;2.05;;
9698;SDS011;10089;47.876;8.346;2023-07-31T07:06:00;8.00;;;2.05;;
9698;SDS011;10089;47.876;8.346;2023-07-31T07:08:26;5.38;;;2.10;;
9698;SDS011;10089;47.876;8.346;2023-07-31T07:10:52;5.93;;;2.55;;
9698;SDS011;10089;47.876;8.346;2023-07-31T07:13:17;3.55;;;2.10;;
9698;SDS011;10089;47.876;8.346;2023-07-31T07:15:49;2.88;;;2.10;;
9698;SDS011;10089;47.876;8.346;2023-07-31T07:18:15;3.35;;;2.05;;
9698;SDS011;10089;47.876;8.346;2023-07-31T07:20:46;3.08;;;1.63;;
9698;SDS011;10089;47.876;8.346;2023-07-31T07:23:12;2.35;;;1.92;;
9698;SDS011;10089;47.876;8.346;2023-07-31T07:25:38;7.13;;;2.05;;
9698;SDS011;10089;47.876;8.346;2023-07-31T07:28:03;4.43;;;1.95;;
9698;SDS011;10089;47.876;8.346;2023-07-31T07:30:29;6.40;;;2.15;;
9698;SDS011;10089;47.876;8.346;2023-07-31T07:32:55;6.45;;;2.40;;
9698;SDS011;10089;47.876;8.346;2023-07-31T07:35:20;3.75;;;1.80;;
9698;SDS011;10089;47.876;8.346;2023-07-31T07:37:48;3.95;;;1.88;;
9698;SDS011;10089;47.876;8.346;2023-07-31T07:40:15;4.50;;;1.65;;
9698;SDS011;10089;47.876;8.346;2023-07-31T07:42:40;5.07;;;1.70;;
9698;SDS011;10089;47.876;8.346;2023-07-31T07:45:06;5.65;;;2.17;;
9698;SDS011;10089;47.876;8.346;2023-07-31T07:47:33;3.42;;;1.40;;
9698;SDS011;10089;47.876;8.346;2023-07-31T07:49:58;6.30;;;1.90;;
9698;SDS011;10089;47.876;8.346;2023-07-31T07:52:24;4.15;;;1.83;;
9698;SDS011;10089;47.876;8.346;2023-07-31T07:54:50;4.78;;;1.67;;
9698;SDS011;10089;47.876;8.346;2023-07-31T07:57:16;2.63;;;1.70;;
9698;SDS011;10089;47.876;8.346;2023-07-31T07:59:41;2.45;;;1.38;;
9698;SDS011;10089;47.876;8.346;2023-07-31T08:02:07;2.88;;;1.83;;
9698;SDS011;10089;47.876;8.346;2023-07-31T08:04:32;2.67;;;1.55;;
9698;SDS011;10089;47.876;8.346;2023-07-31T08:06:58;4.80;;;1.75;;
9698;SDS011;10089;47.876;8.346;2023-07-31T08:09:24;5.75;;;1.70;;
9698;SDS011;10089;47.876;8.346;2023-07-31T08:11:49;4.63;;;1.90;;
9698;SDS011;10089;47.876;8.346;2023-07-31T08:14:15;7.28;;;2.40;;
9698;SDS011;10089;47.876;8.346;2023-07-31T08:16:41;2.85;;;1.63;;
9698;SDS011;10089;47.876;8.346;2023-07-31T08:19:06;5.32;;;1.88;;
9698;SDS011;10089;47.876;8.346;2023-07-31T08:21:32;3.70;;;1.80;;
9698;SDS011;10089;47.876;8.346;2023-07-31T08:23:58;5.53;;;1.83;;
9698;SDS011;10089;47.876;8.346;2023-07-31T08:26:23;5.80;;;2.00;;
9698;SDS011;10089;47.876;8.346;2023-07-31T08:28:49;5.75;;;1.92;;
9698;SDS011;10089;47.876;8.346;2023-07-31T08:31:14;6.72;;;2.00;;
9698;SDS011;10089;47.876;8.346;2023-07-31T08:33:40;2.17;;;1.70;;
9698;SDS011;10089;47.876;8.346;2023-07-31T08:36:06;6.43;;;1.75;;
9698;SDS011;10089;47.876;8.346;2023-07-31T08:38:32;4.90;;;1.70;;
9698;SDS011;10089;47.876;8.346;2023-07-31T08:40:57;3.95;;;1.70;;
9698;SDS011;10089;47.876;8.346;2023-07-31T08:43:26;5.85;;;2.03;;
9698;SDS011;10089;47.876;8.346;2023-07-31T08:45:52;7.38;;;1.98;;
9698;SDS011;10089;47.876;8.346;2023-07-31T08:48:22;4.07;;;1.85;;
9698;SDS011;10089;47.876;8.346;2023-07-31T08:50:49;4.50;;;1.83;;
9698;SDS011;10089;47.876;8.346;2023-07-31T08:53:16;3.60;;;1.90;;
9698;SDS011;10089;47.876;8.346;2023-07-31T08:55:42;3.80;;;1.63;;
9698;SDS011;10089;47.876;8.346;2023-07-31T08:58:09;3.25;;;1.67;;
9698;SDS011;10089;47.876;8.346;2023-07-31T09:00:37;2.70;;;1.48;;
9698;SDS011;10089;47.876;8.346;2023-07-31T09:03:05;3.70;;;1.90;;
9698;SDS011;10089;47.876;8.346;2023-07-31T09:05:46;3.92;;;1.70;;
9698;SDS011;10089;47.876;8.346;2023-07-31T09:08:19;5.53;;;1.70;;
9698;SDS011;10089;47.876;8.346;2023-07-31T09:11:02;3.72;;;1.35;;
9698;SDS011;10089;47.876;8.346;2023-07-31T09:13:29;5.13;;;1.95;;
9698;SDS011;10089;47.876;8.346;2023-07-31T09:15:56;7.63;;;1.98;;
9698;SDS011;10089;47.876;8.346;2023-07-31T09:18:22;3.90;;;1.85;;
9698;SDS011;10089;47.876;8.346;2023-07-31T09:21:04;3.50;;;1.70;;
9698;SDS011;10089;47.876;8.346;2023-07-31T09:23:43;3.95;;;2.00;;
9698;SDS011;10089;47.876;8.346;2023-07-31T09:26:10;3.13;;;1.92;;
9698;SDS011;10089;47.876;8.346;2023-07-31T09:28:53;2.72;;;1.70;;
9698;SDS011;10089;47.876;8.346;2023-07-31T09:31:31;4.57;;;1.90;;
9698;SDS011;10089;47.876;8.346;2023-07-31T09:33:58;6.15;;;2.10;;
9698;SDS011;10089;47.876;8.346;2023-07-31T09:36:23;4.50;;;2.03;;
9698;SDS011;10089;47.876;8.346;2023-07-31T09:38:49;3.60;;;1.60;;
9698;SDS011;10089;47.876;8.346;2023-07-31T09:41:14;3.83;;;1.65;;
9698;SDS011;10089;47.876;8.346;2023-07-31T09:43:40;3.35;;;1.48;;
9698;SDS011;10089;47.876;8.346;2023-07-31T09:46:06;4.00;;;1.95;;
9698;SDS011;10089;47.876;8.346;2023-07-31T09:48:38;4.25;;;1.80;;
9698;SDS011;10089;47.876;8.346;2023-07-31T09:51:04;5.07;;;2.05;;
9698;SDS011;10089;47.876;8.346;2023-07-31T09:53:30;3.60;;;1.70;;
9698;SDS011;10089;47.876;8.346;2023-07-31T09:55:57;4.60;;;1.90;;
9698;SDS011;10089;47.876;8.346;2023-07-31T09:58:24;4.88;;;1.92;;
9698;SDS011;10089;47.876;8.346;2023-07-31T10:00:53;2.75;;;1.85;;
9698;SDS011;10089;47.876;8.346;2023-07-31T10:03:19;3.33;;;1.92;;
9698;SDS011;10089;47.876;8.346;2023-07-31T10:05:46;5.03;;;2.00;;
9698;SDS011;10089;47.876;8.346;2023-07-31T10:08:15;3.97;;;1.67;;
9698;SDS011;10089;47.876;8.346;2023-07-31T10:10:43;5.15;;;1.80;;
9698;SDS011;10089;47.876;8.346;2023-07-31T10:13:12;3.35;;;2.13;;
9698;SDS011;10089;47.876;8.346;2023-07-31T10:15:39;5.20;;;1.88;;
9698;SDS011;10089;47.876;8.346;2023-07-31T10:18:06;3.60;;;1.73;;
9698;SDS011;10089;47.876;8.346;2023-07-31T10:20:32;4.78;;;1.75;;
9698;SDS011;10089;47.876;8.346;2023-07-31T10:22:58;2.30;;;1.42;;
9698;SDS011;10089;47.876;8.346;2023-07-31T10:25:25;2.45;;;1.75;;
9698;SDS011;10089;47.876;8.346;2023-07-31T10:27:51;3.13;;;1.73;;
9698;SDS011;10089;47.876;8.346;2023-07-31T10:30:18;2.08;;;1.55;;
9698;SDS011;10089;47.876;8.346;2023-07-31T10:32:47;3.80;;;1.60;;
9698;SDS011;10089;47.876;8.346;2023-07-31T10:35:15;2.88;;;2.00;;
9698;SDS011;10089;47.876;8.346;2023-07-31T10:37:42;4.05;;;1.80;;
9698;SDS011;10089;47.876;8.346;2023-07-31T10:40:12;7.07;;;1.65;;
9698;SDS011;10089;47.876;8.346;2023-07-31T10:42:45;4.75;;;1.63;;
9698;SDS011;10089;47.876;8.346;2023-07-31T10:45:25;2.22;;;1.40;;
9698;SDS011;10089;47.876;8.346;2023-07-31T10:48:04;2.53;;;1.40;;
9698;SDS011;10089;47.876;8.346;2023-07-31T10:50:31;4.53;;;1.88;;
9698;SDS011;10089;47.876;8.346;2023-07-31T10:52:58;2.95;;;1.67;;
9698;SDS011;10089;47.876;8.346;2023-07-31T10:55:41;4.53;;;1.85;;
9698;SDS011;10089;47.876;8.346;2023-07-31T10:58:12;4.68;;;1.75;;
9698;SDS011;10089;47.876;8.346;2023-07-31T11:00:42;3.25;;;1.88;;
9698;SDS011;10089;47.876;8.346;2023-07-31T11:03:09;3.15;;;1.52;;
9698;SDS011;10089;47.876;8.346;2023-07-31T11:05:40;3.42;;;1.40;;
9698;SDS011;10089;47.876;8.346;2023-07-31T11:08:11;2.85;;;2.05;;
9698;SDS011;10089;47.876;8.346;2023-07-31T11:10:37;3.45;;;1.45;;
9698;SDS011;10089;47.876;8.346;2023-07-31T11:13:06;3.75;;;1.90;;
9698;SDS011;10089;47.876;8.346;2023-07-31T11:15:32;4.13;;;2.00;;
9698;SDS011;10089;47.876;8.346;2023-07-31T11:17:57;4.68;;;2.30;;
9698;SDS011;10089;47.876;8.346;2023-07-31T11:23:23;4.00;;;1.60;;
9698;SDS011;10089;47.876;8.346;2023-07-31T11:25:52;4.25;;;1.83;;
9698;SDS011;10089;47.876;8.346;2023-07-31T11:28:18;7.95;;;2.08;;
9698;SDS011;10089;47.876;8.346;2023-07-31T11:30:44;2.92;;;1.83;;
9698;SDS011;10089;47.876;8.346;2023-07-31T11:33:11;4.72;;;2.17;;
9698;SDS011;10089;47.876;8.346;2023-07-31T11:38:12;5.65;;;2.30;;
9698;SDS011;10089;47.876;8.346;2023-07-31T11:40:45;7.50;;;2.47;;
9698;SDS011;10089;47.876;8.346;2023-07-31T11:43:11;5.63;;;2.42;;
9698;SDS011;10089;47.876;8.346;2023-07-31T11:45:41;5.80;;;2.40;;
9698;SDS011;10089;47.876;8.346;2023-07-31T11:48:10;3.22;;;1.98;;
9698;SDS011;10089;47.876;8.346;2023-07-31T11:50:35;3.58;;;2.05;;
9698;SDS011;10089;47.876;8.346;2023-07-31T11:53:03;5.47;;;2.50;;
9698;SDS011;10089;47.876;8.346;2023-07-31T11:55:34;6.03;;;2.45;;
9698;SDS011;10089;47.876;8.346;2023-07-31T11:58:00;5.70;;;2.65;;
9698;SDS011;10089;47.876;8.346;2023-07-31T12:00:26;4.30;;;2.42;;
9698;SDS011;10089;47.876;8.346;2023-07-31T12:02:52;4.03;;;2.15;;
9698;SDS011;10089;47.876;8.346;2023-07-31T12:05:18;3.67;;;2.42;;
9698;SDS011;10089;47.876;8.346;2023-07-31T12:10:10;4.38;;;2.22;;
9698;SDS011;10089;47.876;8.346;2023-07-31T12:12:36;4.20;;;2.40;;
9698;SDS011;10089;47.876;8.346;2023-07-31T12:15:02;2.97;;;2.30;;
9698;SDS011;10089;47.876;8.346;2023-07-31T12:17:27;4.72;;;2.30;;
9698;SDS011;10089;47.876;8.346;2023-07-31T12:19:53;4.60;;;2.38;;
9698;SDS011;10089;47.876;8.346;2023-07-31T12:22:19;4.32;;;2.40;;
9698;SDS011;10089;47.876;8.346;2023-07-31T12:24:46;6.75;;;2.85;;
9698;SDS011;10089;47.876;8.346;2023-07-31T12:27:12;5.95;;;2.25;;
9698;SDS011;10089;47.876;8.346;2023-07-31T12:29:39;3.95;;;2.25;;
9698;SDS011;10089;47.876;8.346;2023-07-31T12:32:24;3.70;;;2.33;;
9698;SDS011;10089;47.876;8.346;2023-07-31T12:34:53;4.05;;;2.75;;
9698;SDS011;10089;47.876;8.346;2023-07-31T12:37:20;5.03;;;2.70;;
9698;SDS011;10089;47.876;8.346;2023-07-31T12:39:46;3.90;;;2.67;;
9698;SDS011;10089;47.876;8.346;2023-07-31T12:42:11;3.53;;;2.42;;
9698;SDS011;10089;47.876;8.346;2023-07-31T12:44:37;4.13;;;2.53;;
9698;SDS011;10089;47.876;8.346;2023-07-31T12:47:02;4.30;;;2.40;;
9698;SDS011;10089;47.876;8.346;2023-07-31T12:49:29;5.85;;;3.05;;
9698;SDS011;10089;47.876;8.346;2023-07-31T12:51:54;5.80;;;3.20;;
9698;SDS011;10089;47.876;8.346;2023-07-31T12:54:20;5.13;;;3.38;;
9698;SDS011;10089;47.876;8.346;2023-07-31T12:56:45;4.97;;;3.22;;
9698;SDS011;10089;47.876;8.346;2023-07-31T12:59:11;3.33;;;2.60;;
9698;SDS011;10089;47.876;8.346;2023-07-31T13:01:37;8.07;;;3.03;;
9698;SDS011;10089;47.876;8.346;2023-07-31T13:04:02;4.18;;;2.95;;
9698;SDS011;10089;47.876;8.346;2023-07-31T13:06:28;4.07;;;2.67;;
9698;SDS011;10089;47.876;8.346;2023-07-31T13:08:54;5.55;;;2.60;;
9698;SDS011;10089;47.876;8.346;2023-07-31T13:11:19;3.25;;;2.60;;
9698;SDS011;10089;47.876;8.346;2023-07-31T13:13:45;4.90;;;2.88;;
9698;SDS011;10089;47.876;8.346;2023-07-31T13:16:10;4.00;;;2.55;;
9698;SDS011;10089;47.876;8.346;2023-07-31T13:18:36;6.55;;;3.00;;
9698;SDS011;10089;47.876;8.346;2023-07-31T13:21:01;4.00;;;3.00;;
9698;SDS011;10089;47.876;8.346;2023-07-31T13:23:27;4.72;;;2.80;;
9698;SDS011;10089;47.876;8.346;2023-07-31T13:25:53;3.88;;;2.60;;
9698;SDS011;10089;47.876;8.346;2023-07-31T13:28:18;3.13;;;2.30;;
9698;SDS011;10089;47.876;8.346;2023-07-31T13:30:44;2.83;;;2.40;;
9698;SDS011;10089;47.876;8.346;2023-07-31T13:33:11;5.50;;;2.72;;
9698;SDS011;10089;47.876;8.346;2023-07-31T13:35:36;3.42;;;2.42;;
9698;SDS011;10089;47.876;8.346;2023-07-31T13:38:02;4.28;;;2.60;;
9698;SDS011;10089;47.876;8.346;2023-07-31T13:40:27;2.70;;;2.33;;
9698;SDS011;10089;47.876;8.346;2023-07-31T13:42:53;4.05;;;2.65;;
9698;SDS011;10089;47.876;8.346;2023-07-31T13:45:19;4.30;;;2.63;;
9698;SDS011;10089;47.876;8.346;2023-07-31T13:47:45;3.63;;;2.45;;
9698;SDS011;10089;47.876;8.346;2023-07-31T13:50:10;5.15;;;2.63;;
9698;SDS011;10089;47.876;8.346;2023-07-31T13:52:36;4.30;;;2.60;;
9698;SDS011;10089;47.876;8.346;2023-07-31T13:55:02;4.57;;;2.70;;
9698;SDS011;10089;47.876;8.346;2023-07-31T13:57:27;2.72;;;2.53;;
9698;SDS011;10089;47.876;8.346;2023-07-31T13:59:53;3.38;;;2.33;;
9698;SDS011;10089;47.876;8.346;2023-07-31T14:02:19;4.05;;;2.80;;
9698;SDS011;10089;47.876;8.346;2023-07-31T14:04:44;4.35;;;2.50;;
9698;SDS011;10089;47.876;8.346;2023-07-31T14:07:10;4.90;;;2.80;;
9698;SDS011;10089;47.876;8.346;2023-07-31T14:09:36;4.85;;;2.22;;
9698;SDS011;10089;47.876;8.346;2023-07-31T14:12:02;4.22;;;2.22;;
9698;SDS011;10089;47.876;8.346;2023-07-31T14:14:28;3.30;;;2.30;;
9698;SDS011;10089;47.876;8.346;2023-07-31T14:16:54;5.13;;;2.63;;
9698;SDS011;10089;47.876;8.346;2023-07-31T14:19:19;3.38;;;2.13;;
9698;SDS011;10089;47.876;8.346;2023-07-31T14:21:45;3.47;;;2.17;;
9698;SDS011;10089;47.876;8.346;2023-07-31T14:24:11;4.75;;;2.60;;
9698;SDS011;10089;47.876;8.346;2023-07-31T14:26:36;3.47;;;2.45;;
9698;SDS011;10089;47.876;8.346;2023-07-31T14:29:02;6.15;;;2.38;;
9698;SDS011;10089;47.876;8.346;2023-07-31T14:31:27;4.50;;;2.55;;
9698;SDS011;10089;47.876;8.346;2023-07-31T14:33:53;5.45;;;2.78;;
9698;SDS011;10089;47.876;8.346;2023-07-31T14:36:19;5.10;;;3.15;;
9698;SDS011;10089;47.876;8.346;2023-07-31T14:38:44;4.15;;;2.40;;
9698;SDS011;10089;47.876;8.346;2023-07-31T14:41:10;2.67;;;2.28;;
9698;SDS011;10089;47.876;8.346;2023-07-31T14:43:35;5.07;;;2.10;;
9698;SDS011;10089;47.876;8.346;2023-07-31T14:46:01;4.93;;;2.47;;
9698;SDS011;10089;47.876;8.346;2023-07-31T14:48:27;3.75;;;2.30;;
9698;SDS011;10089;47.876;8.346;2023-07-31T14:50:54;4.28;;;2.40;;
9698;SDS011;10089;47.876;8.346;2023-07-31T14:53:19;2.42;;;2.05;;
9698;SDS011;10089;47.876;8.346;2023-07-31T14:55:46;6.05;;;2.40;;
9698;SDS011;10089;47.876;8.346;2023-07-31T14:58:11;4.45;;;2.40;;
9698;SDS011;10089;47.876;8.346;2023-07-31T15:00:38;4.82;;;2.03;;
9698;SDS011;10089;47.876;8.346;2023-07-31T15:03:04;4.45;;;2.30;;
9698;SDS011;10089;47.876;8.346;2023-07-31T15:05:30;3.75;;;2.40;;
9698;SDS011;10089;47.876;8.346;2023-07-31T15:07:55;2.83;;;2.33;;
9698;SDS011;10089;47.876;8.346;2023-07-31T15:10:21;3.85;;;2.40;;